Epsom, NH (03234)

8:18 PM EDT on July 06, 2015 (GMT -0400)
KNHCHICH2 | | Change Station
CLOSE
Current Station
Personal Weather Station
Location: Chichester, NH
Elevation: 689 ft
Nearby Weather Stations

Elev 689 ft 43.21 °N, 71.41 °W | Updated 14 minutes ago

Clear
Clear
71.9 °F
Feels Like 72 °F
N
0.0
Wind Variable Wind from SSW
Gusts 0.0 mph

Today
High -- | Low -- °F
--% Chance of Precip.
Yesterday
High -- | Low -- °F
Precip. -- in
5:12 AM 8:27 PM
Waning Gibbous, 71% visible
Pressure 30.09 in
Visibility 10.0 miles
Clouds Clear
Heat Index 72 °F
Dew Point 66 °F
Humidity 82%
Rainfall 0.00 in
Snow Depth Not available.
UV 0 out of 12
Pollen 4.40 out of 12
Air Quality Not available.
Flu Activity Not available.
METAR KCON 062351Z AUTO 13003KT 10SM CLR 24/17 A3009 RMK AO2 SLP188 T02440167 10300 20244 56005

More Conditions Fewer Conditions

Pressure 30.09 in
Visibility 10.0 miles
Clouds Clear
Heat Index 72 °F
Dew Point 66 °F
Humidity 82%
Rainfall 0.00 in
Snow Depth Not available.
UV 0 out of 12
Pollen 4.40 out of 12
Air Quality Not available.
Flu Activity Not available.
METAR KCON 062351Z AUTO 13003KT 10SM CLR 24/17 A3009 RMK AO2 SLP188 T02440167 10300 20244 56005

More Conditions Fewer Conditions

10-Day Weather Forecast

×

Almanac

Astronomy

Jul. 06, 2015 Rise Set
Actual Time
Civil Twilight
Nautical Twilight
Astronomical Twilight
Moon
Length of Visible Light
Length of Day
Tomorrow will be .
, % of the Moon is Illuminated

Today's Extremes

State Highs State Lows

Community

WunderPhotos

Upload Photos

1,835,692 photos uploaded!

WunderBlogs® & News

Nearby

Air Quality

  Air Quality AQ Index Pollutant
Not available.

Snow Depth

Station Depth Elevation

Earthquake Activity

City Distance Mag. Time & Date
Minimum magnitude displayed is 2.5.

Coastal Water Temperatures

Place Temperature

Stations

Nearby Weather Stations

Station Location Temp. Windchill Dew Point Humidity Wind Precip. Elev Updated Type